Time;durP1;ratioP1;P1;durP2;ratioP2;P2;SDS_P1;SDS_P2;PMS_P1;PMS_P2;Temp;Humidity;BMP_temperature;BMP_pressure;BME280_temperature;BME280_humidity;BME280_pressure;Samples;Min_cycle;Max_cycle;Signal;HPM_P1;HPM_P2
2023/07/27 00:01:09;;;;;;;4.47;2.53;;;13.30;99.90;;;;;;5000021;28;20110;-93
2023/07/27 00:03:34;;;;;;;3.80;2.30;;;13.20;99.90;;;;;;5004635;28;20103;-93
2023/07/27 00:06:00;;;;;;;3.55;2.38;;;13.20;99.90;;;;;;5003514;28;20044;-93
2023/07/27 00:08:26;;;;;;;3.95;2.45;;;12.90;99.90;;;;;;5004372;28;20044;-93
2023/07/27 00:10:53;;;;;;;3.25;2.45;;;13.20;99.90;;;;;;5018632;28;20038;-93
2023/07/27 00:13:19;;;;;;;3.45;2.33;;;13.20;99.90;;;;;;5021046;28;20115;-93
2023/07/27 00:15:45;;;;;;;3.70;2.60;;;13.20;99.90;;;;;;5019830;28;20091;-92
2023/07/27 00:18:11;;;;;;;5.05;2.50;;;13.20;99.90;;;;;;5027913;28;20037;-93
2023/07/27 00:20:36;;;;;;;4.15;2.80;;;13.20;99.90;;;;;;5003994;28;20395;-92
2023/07/27 00:23:02;;;;;;;5.32;3.38;;;13.10;99.90;;;;;;4990872;28;20471;-93
2023/07/27 00:25:28;;;;;;;4.20;2.90;;;13.10;99.90;;;;;;5037363;28;20040;-93
2023/07/27 00:27:53;;;;;;;5.00;2.97;;;13.10;99.90;;;;;;4988039;28;20041;-94
2023/07/27 00:30:19;;;;;;;5.05;3.35;;;13.10;99.90;;;;;;5019988;28;20048;-91
2023/07/27 00:32:45;;;;;;;4.20;2.63;;;13.10;99.90;;;;;;5021787;28;20044;-93
2023/07/27 00:35:11;;;;;;;3.55;2.78;;;13.10;99.90;;;;;;5029747;28;20483;-93
2023/07/27 00:37:36;;;;;;;6.00;2.85;;;13.10;99.90;;;;;;4987781;28;20400;-93
2023/07/27 00:40:06;;;;;;;4.05;2.78;;;13.10;99.90;;;;;;5021964;28;20098;-93
2023/07/27 00:42:32;;;;;;;4.13;2.80;;;13.10;99.90;;;;;;5035332;28;20048;-93
2023/07/27 00:44:57;;;;;;;4.65;2.92;;;13.10;99.90;;;;;;5008344;28;20052;-92
2023/07/27 00:47:23;;;;;;;4.70;3.00;;;13.10;99.90;;;;;;5028093;28;20139;-93
2023/07/27 00:49:49;;;;;;;5.63;2.80;;;13.20;99.90;;;;;;5020135;28;20550;-93
2023/07/27 00:52:15;;;;;;;3.90;2.70;;;13.10;99.90;;;;;;5008596;28;20124;-93
2023/07/27 00:54:41;;;;;;;4.53;2.80;;;13.10;99.90;;;;;;5021281;28;20537;-93
2023/07/27 00:57:07;;;;;;;3.42;2.55;;;13.10;99.90;;;;;;5003748;28;20072;-93
2023/07/27 00:59:33;;;;;;;5.10;3.13;;;13.10;99.90;;;;;;5020066;28;20093;-92
2023/07/27 01:01:59;;;;;;;4.25;2.90;;;13.10;99.90;;;;;;5018828;28;20885;-93
2023/07/27 01:04:26;;;;;;;4.13;2.83;;;13.10;99.90;;;;;;5003743;28;20789;-93
2023/07/27 01:06:52;;;;;;;4.90;3.10;;;13.10;99.90;;;;;;5029486;28;20051;-93
2023/07/27 01:09:17;;;;;;;7.07;3.10;;;13.10;99.90;;;;;;5002953;28;20041;-93
2023/07/27 01:11:55;;;;;;;5.78;2.67;;;13.10;99.90;;;;;;5010066;28;20052;-93
2023/07/27 01:14:24;;;;;;;3.67;2.30;;;13.10;99.90;;;;;;5020712;28;20032;-93
2023/07/27 01:17:11;;;;;;;5.97;2.95;;;13.10;99.90;;;;;;5028213;28;20083;-93
2023/07/27 01:19:58;;;;;;;4.47;2.88;;;13.10;99.90;;;;;;5022460;28;20315;-93
2023/07/27 01:22:30;;;;;;;3.83;2.70;;;13.10;99.90;;;;;;5023272;28;20036;-93
2023/07/27 01:25:19;;;;;;;3.90;2.75;;;12.30;99.90;;;;;;5022848;28;20063;-93
2023/07/27 01:28:07;;;;;;;4.38;2.88;;;13.10;99.90;;;;;;5013570;28;20288;-93
2023/07/27 01:30:55;;;;;;;6.03;2.97;;;13.10;99.90;;;;;;5031170;28;20065;-93
2023/07/27 01:33:33;;;;;;;6.45;3.20;;;13.10;99.90;;;;;;5017511;28;20067;-94
2023/07/27 01:36:02;;;;;;;5.60;2.83;;;13.10;99.90;;;;;;5027082;28;20495;-93
2023/07/27 01:38:30;;;;;;;4.10;2.30;;;13.30;99.90;;;;;;5027594;28;20052;-92
2023/07/27 01:40:57;;;;;;;3.78;2.85;;;13.20;99.90;;;;;;5025419;28;20043;-93
2023/07/27 01:43:25;;;;;;;4.28;2.80;;;13.10;99.90;;;;;;5008636;28;20127;-91
2023/07/27 01:45:52;;;;;;;4.32;2.65;;;13.10;99.90;;;;;;5026385;28;20672;-92
2023/07/27 01:48:19;;;;;;;5.27;2.80;;;13.10;99.90;;;;;;5021092;28;20125;-93
2023/07/27 01:50:46;;;;;;;4.95;2.85;;;13.10;99.90;;;;;;5003313;28;20831;-92
2023/07/27 01:53:13;;;;;;;3.20;2.53;;;13.40;99.90;;;;;;5018752;28;20447;-93
2023/07/27 01:55:40;;;;;;;4.38;2.50;;;13.10;99.90;;;;;;5020616;28;20072;-92
2023/07/27 01:58:06;;;;;;;4.82;2.72;;;13.10;99.90;;;;;;5018680;28;20047;-91
2023/07/27 02:00:32;;;;;;;3.97;2.60;;;13.10;99.90;;;;;;5003652;28;20045;-92
2023/07/27 02:02:58;;;;;;;3.70;2.53;;;12.90;99.90;;;;;;5019575;28;20094;-92
2023/07/27 02:05:25;;;;;;;4.47;2.55;;;13.10;99.90;;;;;;4986207;28;20132;-92
2023/07/27 02:07:50;;;;;;;3.50;2.60;;;13.00;99.90;;;;;;5018948;28;20144;-93
2023/07/27 02:10:19;;;;;;;4.43;2.72;;;13.10;99.90;;;;;;5001322;28;20124;-92
2023/07/27 02:12:57;;;;;;;4.97;3.22;;;13.00;99.90;;;;;;5019476;28;20037;-92
2023/07/27 02:15:27;;;;;;;3.90;2.70;;;13.00;99.90;;;;;;5018314;28;20079;-92
2023/07/27 02:18:08;;;;;;;4.75;2.70;;;12.60;99.90;;;;;;5019558;28;20754;-92
2023/07/27 02:20:38;;;;;;;5.68;2.80;;;13.10;99.90;;;;;;5020366;28;20044;-93
2023/07/27 02:23:06;;;;;;;3.75;2.47;;;13.10;99.90;;;;;;5020379;28;20052;-93
2023/07/27 02:25:32;;;;;;;4.10;2.30;;;13.00;99.90;;;;;;5006837;28;20045;-93
2023/07/27 02:27:58;;;;;;;5.07;2.88;;;13.00;99.90;;;;;;5022196;28;20044;-94
2023/07/27 02:30:24;;;;;;;5.63;2.42;;;14.00;99.90;;;;;;5014154;28;20550;-94
2023/07/27 02:32:50;;;;;;;4.20;2.85;;;13.00;99.90;;;;;;5016630;28;20136;-94
2023/07/27 02:35:16;;;;;;;5.72;2.47;;;13.10;99.90;;;;;;4989175;28;20037;-94
2023/07/27 02:37:41;;;;;;;4.57;2.80;;;13.10;99.90;;;;;;4989689;28;20032;-94
2023/07/27 02:40:10;;;;;;;4.65;2.70;;;12.90;99.90;;;;;;5014030;28;20633;-93
2023/07/27 02:42:36;;;;;;;4.07;2.58;;;13.10;99.90;;;;;;5001564;28;20033;-94
2023/07/27 02:45:02;;;;;;;3.92;2.83;;;13.00;99.90;;;;;;4995441;28;20064;-92
2023/07/27 02:47:28;;;;;;;4.32;2.80;;;13.10;99.90;;;;;;5037466;28;20048;-93
2023/07/27 02:49:54;;;;;;;4.85;2.88;;;14.10;99.90;;;;;;5008095;28;20048;-93
2023/07/27 02:52:22;;;;;;;4.25;2.72;;;13.00;99.90;;;;;;4992278;28;20135;-93
2023/07/27 02:54:48;;;;;;;5.30;3.20;;;13.10;99.90;;;;;;5006299;28;20037;-93
2023/07/27 02:57:13;;;;;;;4.40;2.60;;;13.00;99.90;;;;;;5027799;28;20033;-94
2023/07/27 02:59:39;;;;;;;5.28;2.47;;;13.10;99.90;;;;;;4994208;28;20037;-93
2023/07/27 03:02:05;;;;;;;4.85;2.85;;;13.10;99.90;;;;;;4985600;28;20045;-93
2023/07/27 03:04:31;;;;;;;4.63;2.40;;;13.10;99.90;;;;;;4990480;28;20032;-92
2023/07/27 03:06:57;;;;;;;4.13;2.80;;;13.10;99.90;;;;;;4989907;28;20045;-93
2023/07/27 03:09:23;;;;;;;4.25;2.50;;;13.10;99.90;;;;;;5021408;28;20056;-94
2023/07/27 03:11:49;;;;;;;4.60;2.50;;;13.10;99.90;;;;;;5045019;28;20036;-93
2023/07/27 03:14:15;;;;;;;7.82;2.97;;;13.10;99.90;;;;;;5005619;28;20060;-94
2023/07/27 03:16:41;;;;;;;3.77;2.73;;;13.10;99.90;;;;;;4987653;28;20034;-93
2023/07/27 03:19:07;;;;;;;4.00;2.80;;;13.10;99.90;;;;;;5026707;28;20037;-93
2023/07/27 03:21:33;;;;;;;3.55;2.67;;;13.20;99.90;;;;;;5027623;28;20096;-93
2023/07/27 03:23:59;;;;;;;5.35;2.80;;;13.20;99.90;;;;;;5023678;28;21337;-93
2023/07/27 03:26:24;;;;;;;5.25;2.42;;;13.20;99.90;;;;;;5023028;28;20037;-94
2023/07/27 03:28:50;;;;;;;3.90;2.60;;;13.20;99.90;;;;;;5021181;28;20048;-93
2023/07/27 03:31:23;;;;;;;4.55;2.50;;;13.20;99.90;;;;;;5010833;28;20033;-93
2023/07/27 03:33:49;;;;;;;5.53;2.83;;;13.30;99.90;;;;;;5030452;28;20071;-93
2023/07/27 03:36:16;;;;;;;3.88;2.97;;;13.30;99.90;;;;;;5026045;28;20047;-93
2023/07/27 03:38:42;;;;;;;4.93;3.28;;;13.30;99.90;;;;;;5023380;28;20043;-93
2023/07/27 03:41:08;;;;;;;3.13;2.30;;;13.40;99.90;;;;;;5005458;28;20045;-93
2023/07/27 03:43:34;;;;;;;5.40;2.58;;;13.20;99.90;;;;;;4988441;28;20060;-93
2023/07/27 03:45:59;;;;;;;3.88;2.75;;;13.40;99.90;;;;;;4997871;28;20075;-93
2023/07/27 03:48:28;;;;;;;4.25;2.72;;;13.40;99.90;;;;;;5004372;28;20067;-93
2023/07/27 03:50:53;;;;;;;3.80;2.60;;;13.40;99.90;;;;;;4988612;28;20052;-93
2023/07/27 03:53:20;;;;;;;4.38;2.45;;;13.50;99.90;;;;;;5027307;28;20032;-93
2023/07/27 03:55:46;;;;;;;4.40;2.88;;;13.40;99.90;;;;;;5026384;28;20082;-93
2023/07/27 03:58:12;;;;;;;4.00;2.63;;;13.50;99.90;;;;;;5028233;28;20451;-93
2023/07/27 04:00:38;;;;;;;4.03;2.90;;;13.60;99.90;;;;;;5012514;28;20152;-94
2023/07/27 04:03:03;;;;;;;4.50;2.75;;;13.60;99.90;;;;;;5020321;28;20404;-93
2023/07/27 04:05:32;;;;;;;3.22;2.47;;;13.60;99.90;;;;;;5016591;28;20068;-93
2023/07/27 04:07:58;;;;;;;4.95;3.28;;;14.20;99.90;;;;;;5034478;28;20373;-93
2023/07/27 04:10:24;;;;;;;3.22;2.55;;;15.00;99.90;;;;;;5029601;28;20047;-93
2023/07/27 04:12:51;;;;;;;4.05;3.00;;;14.70;99.90;;;;;;5024476;28;20099;-94
2023/07/27 04:15:18;;;;;;;5.20;3.33;;;14.00;99.90;;;;;;5020213;28;20079;-93
2023/07/27 04:17:43;;;;;;;5.67;3.00;;;13.70;99.90;;;;;;5019120;28;20037;-92
2023/07/27 04:20:10;;;;;;;3.28;2.78;;;13.70;99.90;;;;;;5019721;28;20048;-93
2023/07/27 04:22:35;;;;;;;3.70;2.95;;;13.70;99.90;;;;;;5003329;28;20037;-93
2023/07/27 04:25:01;;;;;;;4.20;3.05;;;13.70;99.90;;;;;;5004115;28;20043;-93
2023/07/27 04:27:27;;;;;;;3.88;2.83;;;13.60;99.90;;;;;;5003649;28;20037;-93
2023/07/27 04:29:53;;;;;;;5.15;2.95;;;13.70;99.90;;;;;;5020410;28;20040;-93
2023/07/27 04:32:19;;;;;;;4.68;3.10;;;13.90;99.90;;;;;;5021048;28;20052;-93
2023/07/27 04:34:44;;;;;;;4.25;2.90;;;13.80;99.90;;;;;;4994116;28;20111;-92
2023/07/27 04:37:10;;;;;;;4.00;2.80;;;13.80;99.90;;;;;;5011671;28;20075;-93
2023/07/27 04:39:39;;;;;;;4.50;3.35;;;13.70;99.90;;;;;;5032675;28;20646;-94
2023/07/27 04:42:05;;;;;;;4.10;3.38;;;13.80;99.90;;;;;;5033343;28;20041;-93
2023/07/27 04:44:31;;;;;;;3.97;2.92;;;13.70;99.90;;;;;;5048711;28;20516;-93
2023/07/27 04:46:58;;;;;;;4.20;3.38;;;13.80;99.90;;;;;;4985208;28;20134;-94
2023/07/27 04:49:23;;;;;;;6.97;3.80;;;13.80;99.90;;;;;;4968627;28;20077;-93
2023/07/27 04:51:49;;;;;;;4.30;3.00;;;13.80;99.90;;;;;;4993184;28;20488;-93
2023/07/27 04:54:15;;;;;;;3.85;3.08;;;13.70;99.90;;;;;;4970977;28;20037;-94
2023/07/27 04:56:41;;;;;;;4.60;3.60;;;13.80;99.90;;;;;;4984223;28;20037;-93
2023/07/27 04:59:07;;;;;;;4.35;3.15;;;13.80;99.90;;;;;;4990254;28;20033;-93
2023/07/27 05:01:32;;;;;;;4.82;3.50;;;13.80;99.90;;;;;;4982543;28;20049;-93
2023/07/27 05:03:58;;;;;;;5.13;3.72;;;13.80;99.90;;;;;;5000116;28;20508;-94
2023/07/27 05:06:24;;;;;;;5.47;3.88;;;13.80;99.90;;;;;;5002732;28;20460;-94
2023/07/27 05:08:50;;;;;;;5.28;3.60;;;13.80;99.90;;;;;;5003764;28;20380;-94
2023/07/27 05:11:16;;;;;;;7.22;4.20;;;13.80;99.90;;;;;;5014811;28;20049;-94
2023/07/27 05:13:42;;;;;;;5.63;3.90;;;13.80;99.90;;;;;;5003176;28;20034;-95
2023/07/27 05:16:08;;;;;;;4.93;3.63;;;14.20;99.90;;;;;;5002753;28;20033;-93
2023/07/27 05:18:34;;;;;;;6.78;4.35;;;13.90;99.90;;;;;;4997376;28;20034;-93
2023/07/27 05:21:00;;;;;;;5.53;4.10;;;13.90;99.90;;;;;;5009487;28;20060;-93
2023/07/27 05:23:26;;;;;;;5.50;3.85;;;13.90;99.90;;;;;;5011254;28;20044;-92
2023/07/27 05:25:52;;;;;;;5.32;4.05;;;13.40;99.90;;;;;;5011682;28;20038;-93
2023/07/27 05:28:21;;;;;;;5.68;3.88;;;13.40;99.90;;;;;;5012798;28;20049;-93
2023/07/27 05:30:46;;;;;;;4.97;3.60;;;13.90;99.90;;;;;;5000279;28;20073;-94
2023/07/27 05:33:12;;;;;;;8.35;4.25;;;13.90;99.90;;;;;;5017347;28;20136;-94
2023/07/27 05:35:38;;;;;;;5.10;4.13;;;14.00;99.90;;;;;;5000818;28;20041;-93
2023/07/27 05:38:04;;;;;;;5.53;4.35;;;14.00;99.90;;;;;;5002234;28;20104;-93
2023/07/27 05:40:40;;;;;;;5.80;3.72;;;14.00;99.90;;;;;;4999874;28;20055;-95
2023/07/27 05:43:06;;;;;;;5.88;4.38;;;14.40;99.90;;;;;;4987951;28;20132;-95
2023/07/27 05:45:34;;;;;;;5.05;4.00;;;14.00;99.90;;;;;;5036607;28;20128;-93
2023/07/27 05:48:07;;;;;;;5.38;3.90;;;14.00;99.90;;;;;;5024920;28;20067;-94
2023/07/27 05:50:34;;;;;;;7.63;4.38;;;14.00;99.90;;;;;;5018982;28;20499;-93
2023/07/27 05:53:00;;;;;;;5.55;3.90;;;13.80;99.90;;;;;;5026109;28;20123;-94
2023/07/27 05:55:26;;;;;;;5.15;4.20;;;14.00;99.90;;;;;;5002482;28;20029;-94
2023/07/27 05:57:55;;;;;;;4.72;3.55;;;14.00;99.90;;;;;;5000480;28;20037;-94
2023/07/27 06:00:20;;;;;;;6.28;4.07;;;14.00;99.90;;;;;;5023559;28;20411;-94
2023/07/27 06:02:46;;;;;;;5.25;3.88;;;13.90;99.90;;;;;;5017199;28;20046;-94
2023/07/27 06:05:12;;;;;;;4.38;3.72;;;14.00;99.90;;;;;;4990080;28;20043;-95
2023/07/27 06:07:38;;;;;;;4.72;3.50;;;13.90;99.90;;;;;;5029013;28;20052;-94
2023/07/27 06:10:04;;;;;;;5.10;3.30;;;13.90;99.90;;;;;;4992835;28;20094;-95
2023/07/27 06:12:29;;;;;;;5.10;3.17;;;13.90;99.90;;;;;;5010485;28;20315;-94
2023/07/27 06:14:55;;;;;;;5.97;3.20;;;13.90;99.90;;;;;;5017884;28;20116;-94
2023/07/27 06:17:28;;;;;;;3.67;3.00;;;13.90;99.90;;;;;;5000653;28;20033;-94
2023/07/27 06:19:54;;;;;;;5.20;3.50;;;13.80;99.90;;;;;;5011899;28;20422;-94
2023/07/27 06:22:19;;;;;;;5.78;3.60;;;14.00;99.90;;;;;;5002304;28;20053;-94
2023/07/27 06:24:45;;;;;;;3.08;2.72;;;14.00;99.90;;;;;;5008200;28;20103;-94
2023/07/27 06:27:11;;;;;;;4.68;3.08;;;14.10;99.90;;;;;;5026299;28;20067;-94
2023/07/27 06:29:46;;;;;;;4.85;3.55;;;14.10;99.90;;;;;;5005395;28;20037;-94
2023/07/27 06:32:12;;;;;;;5.85;3.55;;;14.30;99.90;;;;;;5020280;28;20665;-94
2023/07/27 06:34:37;;;;;;;4.28;3.22;;;14.30;99.90;;;;;;5010222;28;20047;-95
2023/07/27 06:37:05;;;;;;;4.15;3.10;;;14.50;99.90;;;;;;5020713;28;20079;-94
2023/07/27 06:39:44;;;;;;;4.80;2.97;;;14.60;99.90;;;;;;5029651;28;20032;-94
2023/07/27 06:42:10;;;;;;;4.45;2.75;;;;;;;;;;5007236;28;20047;-94
2023/07/27 06:44:37;;;;;;;3.78;2.90;;;15.20;99.90;;;;;;5012251;28;20055;-95
2023/07/27 06:47:18;;;;;;;3.92;2.90;;;15.50;99.90;;;;;;4996657;28;20045;-94
2023/07/27 06:50:33;;;;;;;4.43;2.92;;;15.80;99.90;;;;;;4996738;28;20057;-94
2023/07/27 07:01:10;;;;;;;;;;;;;;;;;;;;;
2023/07/27 07:08:50;;;;;;;3.42;2.90;;;15.80;99.90;;;;;;4878685;29;20073;-94
2023/07/27 07:11:53;;;;;;;;;;;;;;;;;;;;;
2023/07/27 07:14:40;;;;;;;3.60;2.50;;;15.80;99.90;;;;;;4866011;29;20469;-94
2023/07/27 07:17:09;;;;;;;3.63;2.30;;;15.80;99.90;;;;;;4859884;28;20033;-94
2023/07/27 07:23:45;;;;;;;4.68;2.30;;;15.60;99.90;;;;;;4934847;28;20082;-93
2023/07/27 07:34:22;;;;;;;2.40;1.92;;;15.70;99.90;;;;;;4782045;29;20058;-93
2023/07/27 07:36:56;;;;;;;2.67;1.95;;;15.50;99.90;;;;;;4786468;29;20137;-95
2023/07/27 07:39:25;;;;;;;3.60;2.15;;;15.50;99.90;;;;;;4800110;29;20084;-95
2023/07/27 07:42:42;;;;;;;3.35;2.38;;;15.50;99.90;;;;;;4807437;29;20050;-94
2023/07/27 07:45:12;;;;;;;3.53;2.58;;;15.60;99.90;;;;;;4843883;29;20060;-94
2023/07/27 07:47:39;;;;;;;3.13;2.20;;;15.40;99.90;;;;;;4877376;29;20047;-94
2023/07/27 07:50:08;;;;;;;3.00;2.70;;;15.60;99.90;;;;;;4954871;28;20104;-94
2023/07/27 07:52:34;;;;;;;3.20;2.15;;;15.40;99.90;;;;;;4969740;28;20124;-94
2023/07/27 07:55:12;;;;;;;3.58;2.58;;;15.60;99.90;;;;;;4972692;28;20061;-94
2023/07/27 07:57:38;;;;;;;;;;;15.60;99.90;;;;;;4965278;28;20052;-93
2023/07/27 08:00:16;;;;;;;3.28;2.60;;;15.60;99.90;;;;;;5003477;28;19917;-93
2023/07/27 08:02:48;;;;;;;3.20;2.72;;;15.60;99.90;;;;;;4981927;28;20045;-94
2023/07/27 08:05:16;;;;;;;4.45;2.80;;;15.60;99.90;;;;;;4985868;28;20125;-93
2023/07/27 08:07:45;;;;;;;3.13;2.42;;;15.70;99.90;;;;;;5011659;28;20038;-95
2023/07/27 08:10:16;;;;;;;3.28;2.35;;;15.60;99.90;;;;;;5002679;28;20033;-95
2023/07/27 08:12:42;;;;;;;3.00;2.60;;;15.90;99.90;;;;;;4964440;28;20053;-94
2023/07/27 08:15:30;;;;;;;;;;;;;;;;;;;;;
2023/07/27 08:18:11;;;;;;;2.63;1.88;;;15.80;99.90;;;;;;5028144;28;20045;-94
2023/07/27 08:20:42;;;;;;;2.33;1.85;;;15.80;99.90;;;;;;5020689;28;20451;-94
2023/07/27 08:23:08;;;;;;;2.00;1.63;;;15.80;99.90;;;;;;5025723;28;20387;-94
2023/07/27 08:25:39;;;;;;;3.00;2.15;;;15.80;99.90;;;;;;5026025;28;20043;-94
2023/07/27 08:28:05;;;;;;;2.13;1.50;;;15.80;99.90;;;;;;5019789;28;20081;-95
2023/07/27 08:33:56;;;;;;;1.80;1.40;;;15.90;99.90;;;;;;5011831;28;20095;-94
2023/07/27 08:36:40;;;;;;;;;;;;;;;;;;;;;
2023/07/27 08:39:50;;;;;;;3.85;1.77;;;16.60;99.90;;;;;;4964103;28;20427;-94
2023/07/27 08:42:56;;;;;;;2.47;1.38;;;16.00;99.90;;;;;;4981598;28;20068;-95
2023/07/27 08:45:26;;;;;;;1.63;1.50;;;;;;;;;;4974760;28;20078;-94
2023/07/27 08:47:59;;;;;;;2.05;1.23;;;16.00;99.90;;;;;;4978423;28;20045;-95
2023/07/27 08:50:32;;;;;;;1.50;1.20;;;15.70;99.90;;;;;;4975871;28;20069;-94
2023/07/27 08:52:58;;;;;;;2.03;1.20;;;16.00;99.90;;;;;;4967877;28;20042;-94
2023/07/27 08:55:24;;;;;;;2.47;1.23;;;16.00;99.90;;;;;;4975786;28;20038;-95
2023/07/27 08:57:50;;;;;;;2.08;1.30;;;16.10;99.90;;;;;;4978468;28;20127;-94
2023/07/27 09:00:24;;;;;;;1.10;1.00;;;16.10;99.90;;;;;;4975997;28;20065;-95
2023/07/27 09:03:10;;;;;;;1.85;1.33;;;16.10;99.90;;;;;;4955742;28;20048;-94
2023/07/27 09:05:54;;;;;;;2.05;1.20;;;16.20;99.90;;;;;;4946312;28;20046;-96
2023/07/27 09:08:45;;;;;;;2.15;1.15;;;16.10;99.90;;;;;;4978364;28;20037;-95
2023/07/27 09:11:36;;;;;;;2.30;1.25;;;16.20;99.90;;;;;;5012805;28;20123;-94
2023/07/27 09:14:47;;;;;;;1.40;1.10;;;16.00;99.90;;;;;;5031913;28;20115;-95
2023/07/27 09:17:45;;;;;;;1.92;1.10;;;16.40;99.90;;;;;;5019422;28;20041;-94
2023/07/27 09:27:16;;;;;;;1.88;1.55;;;16.70;99.90;;;;;;4937394;29;20059;-94
2023/07/27 09:29:59;;;;;;;1.92;1.30;;;16.80;99.90;;;;;;4994918;28;20042;-94
2023/07/27 09:33:18;;;;;;;1.48;1.25;;;17.00;99.90;;;;;;4996564;28;20033;-95
2023/07/27 09:35:50;;;;;;;1.50;1.33;;;17.00;99.90;;;;;;4971844;28;20046;-95
2023/07/27 09:38:49;;;;;;;2.10;1.45;;;17.10;99.90;;;;;;4982669;28;20060;-94
2023/07/27 09:42:03;;;;;;;1.65;1.55;;;17.10;99.90;;;;;;4963570;28;20136;-95
2023/07/27 09:48:04;;;;;;;1.55;0.95;;;16.80;99.90;;;;;;5026609;28;20040;-95
2023/07/27 09:51:48;;;;;;;1.65;1.33;;;17.00;99.90;;;;;;5032445;28;20048;-95
2023/07/27 09:54:45;;;;;;;2.03;1.35;;;17.20;99.90;;;;;;4974240;28;20476;-95
2023/07/27 09:57:26;;;;;;;4.90;1.38;;;16.90;99.90;;;;;;4965579;28;20594;-94
2023/07/27 09:59:55;;;;;;;1.70;1.40;;;16.50;99.90;;;;;;4981159;28;20132;-95
2023/07/27 10:02:26;;;;;;;2.20;1.67;;;17.20;99.90;;;;;;4970798;28;20067;-94
2023/07/27 10:08:55;;;;;;;1.30;1.20;;;17.00;99.90;;;;;;4972369;28;20401;-95
2023/07/27 10:12:27;;;;;;;1.40;1.30;;;17.00;99.90;;;;;;4970563;28;20031;-96
2023/07/27 10:30:45;;;;;;;1.27;1.17;;;17.10;99.90;;;;;;4968949;28;20042;-94
2023/07/27 10:33:58;;;;;;;1.42;1.08;;;17.10;99.90;;;;;;4998676;28;20500;-95
2023/07/27 10:48:36;;;;;;;1.05;0.85;;;17.20;99.90;;;;;;4857678;29;20052;-94
2023/07/27 10:59:01;;;;;;;1.00;0.90;;;16.80;99.90;;;;;;4907827;29;20030;-96
2023/07/27 11:01:37;;;;;;;1.00;0.90;;;17.00;99.90;;;;;;4912673;29;20048;-93
2023/07/27 11:04:06;;;;;;;1.20;1.00;;;17.00;99.90;;;;;;4913509;29;20116;-95
2023/07/27 11:06:41;;;;;;;0.95;0.85;;;17.10;99.90;;;;;;4894262;29;20051;-95
2023/07/27 11:09:12;;;;;;;1.10;1.00;;;17.10;99.90;;;;;;5012046;28;20488;-94
2023/07/27 11:11:39;;;;;;;1.23;0.93;;;17.10;99.90;;;;;;5027028;28;20076;-93
2023/07/27 11:14:10;;;;;;;0.82;0.80;;;17.10;99.90;;;;;;5029546;28;20047;-96
2023/07/27 11:16:37;;;;;;;1.20;0.80;;;17.50;99.90;;;;;;5022319;28;20041;-95
2023/07/27 11:19:08;;;;;;;1.35;0.77;;;17.00;99.90;;;;;;5021329;28;20033;-94
2023/07/27 11:21:40;;;;;;;1.73;1.08;;;17.00;99.90;;;;;;5039620;28;20075;-94
2023/07/27 11:24:09;;;;;;;1.52;0.88;;;17.00;99.90;;;;;;5041020;28;20067;-93
2023/07/27 11:26:37;;;;;;;0.73;0.70;;;17.00;99.90;;;;;;5031633;28;20119;-92
2023/07/27 11:29:03;;;;;;;0.85;0.80;;;17.00;99.90;;;;;;5019605;28;20048;-94
2023/07/27 11:31:29;;;;;;;1.67;1.00;;;16.90;99.90;;;;;;5026666;28;20037;-94
2023/07/27 11:34:01;;;;;;;4.72;1.20;;;16.90;99.90;;;;;;5004637;28;21074;-94
2023/07/27 11:36:31;;;;;;;5.28;1.27;;;16.80;99.90;;;;;;5020389;28;20098;-94
2023/07/27 11:38:58;;;;;;;4.60;1.52;;;17.40;99.90;;;;;;5020471;28;20120;-95
2023/07/27 11:41:32;;;;;;;4.30;1.35;;;16.90;99.90;;;;;;5020999;28;20037;-95
2023/07/27 11:43:59;;;;;;;3.75;1.50;;;16.90;99.90;;;;;;5037038;28;20052;-95
2023/07/27 11:46:26;;;;;;;2.97;1.40;;;17.00;99.90;;;;;;5020615;28;20509;-95
2023/07/27 11:48:52;;;;;;;2.90;1.27;;;17.00;99.90;;;;;;5020316;28;20672;-94
2023/07/27 11:51:18;;;;;;;3.65;1.55;;;17.20;99.90;;;;;;5018281;28;20068;-94
2023/07/27 11:53:46;;;;;;;4.97;1.15;;;17.10;99.90;;;;;;5004906;28;20047;-95
2023/07/27 11:56:12;;;;;;;1.50;1.10;;;17.10;99.90;;;;;;5024076;28;20128;-95
2023/07/27 11:58:41;;;;;;;2.13;1.00;;;17.10;99.90;;;;;;5030676;28;20131;-95
2023/07/27 12:01:07;;;;;;;1.88;1.23;;;17.10;99.90;;;;;;5047413;28;20049;-96
2023/07/27 12:03:33;;;;;;;4.47;1.50;;;17.20;99.90;;;;;;5023533;28;20047;-93
2023/07/27 12:06:15;;;;;;;2.13;1.52;;;17.10;99.90;;;;;;5022234;28;20549;-94
2023/07/27 12:09:23;;;;;;;2.15;1.45;;;17.30;99.90;;;;;;5014595;28;20088;-94
2023/07/27 12:11:49;;;;;;;3.83;1.27;;;17.10;99.90;;;;;;5001222;28;20058;-94
2023/07/27 12:14:22;;;;;;;4.07;1.50;;;17.10;99.90;;;;;;4994770;28;20067;-93
2023/07/27 12:16:48;;;;;;;6.00;2.17;;;17.10;99.90;;;;;;4998952;28;20080;-93
2023/07/27 12:19:14;;;;;;;4.20;1.70;;;17.10;99.90;;;;;;4973673;28;20065;-95
2023/07/27 12:21:40;;;;;;;3.38;1.63;;;17.20;99.90;;;;;;4999391;28;20184;-95
2023/07/27 12:24:10;;;;;;;3.88;1.70;;;17.20;99.90;;;;;;5006372;28;20045;-95
2023/07/27 12:26:37;;;;;;;1.98;1.40;;;17.20;99.90;;;;;;4999331;28;20074;-95
2023/07/27 12:29:04;;;;;;;1.73;1.40;;;17.20;99.90;;;;;;5005902;28;20092;-96
2023/07/27 12:31:33;;;;;;;2.10;1.80;;;17.30;99.90;;;;;;5012713;28;20073;-96
2023/07/27 12:33:59;;;;;;;2.47;1.80;;;17.40;99.90;;;;;;5024533;28;20049;-96
2023/07/27 12:36:28;;;;;;;2.83;1.70;;;17.50;99.90;;;;;;5009748;28;20072;-96
2023/07/27 12:38:54;;;;;;;2.25;1.70;;;17.50;99.90;;;;;;5026789;28;20049;-96
2023/07/27 12:41:23;;;;;;;2.25;1.95;;;17.20;99.90;;;;;;5000932;28;20055;-96
2023/07/27 12:43:52;;;;;;;2.97;1.83;;;17.30;99.90;;;;;;5028531;28;20096;-96
2023/07/27 12:46:18;;;;;;;2.95;1.67;;;17.70;99.90;;;;;;5028172;28;20514;-96
2023/07/27 12:48:52;;;;;;;3.58;1.42;;;17.60;99.90;;;;;;5019780;28;20079;-95
2023/07/27 12:51:21;;;;;;;4.25;1.58;;;17.60;99.90;;;;;;5035623;28;20029;-96
2023/07/27 12:53:52;;;;;;;1.25;1.10;;;17.70;99.90;;;;;;5058078;28;20043;-96
2023/07/27 12:56:26;;;;;;;1.40;1.30;;;18.60;99.90;;;;;;5037782;28;20051;-95
2023/07/27 12:58:55;;;;;;;1.67;1.42;;;16.70;99.90;;;;;;5044498;28;20053;-96
2023/07/27 13:01:30;;;;;;;1.30;1.10;;;18.10;99.90;;;;;;5034183;28;20075;-96
2023/07/27 13:03:55;;;;;;;1.30;1.20;;;17.80;99.90;;;;;;5006624;28;20076;-95
2023/07/27 13:06:21;;;;;;;1.30;1.10;;;18.20;99.90;;;;;;5021248;28;20033;-96
2023/07/27 13:08:47;;;;;;;1.35;1.23;;;18.30;99.90;;;;;;5020460;28;20095;-96
2023/07/27 13:11:13;;;;;;;1.23;1.10;;;18.40;99.90;;;;;;5018665;28;20037;-94
2023/07/27 13:13:39;;;;;;;1.20;1.10;;;18.60;99.90;;;;;;5002781;28;20037;-96
2023/07/27 13:16:05;;;;;;;1.40;1.30;;;;;;;;;;5005221;28;20036;-94
2023/07/27 13:18:34;;;;;;;1.20;0.98;;;18.80;99.90;;;;;;5020767;28;20088;-95
2023/07/27 13:21:00;;;;;;;1.23;1.10;;;18.50;99.90;;;;;;5012388;28;20048;-96
2023/07/27 13:23:28;;;;;;;1.00;0.90;;;18.70;99.90;;;;;;4999335;28;20048;-94
2023/07/27 13:25:53;;;;;;;1.17;1.08;;;18.70;99.90;;;;;;5026040;28;20043;-95
2023/07/27 13:28:19;;;;;;;1.63;1.10;;;18.90;99.90;;;;;;5003793;28;20068;-95
2023/07/27 13:30:45;;;;;;;0.80;0.80;;;18.70;99.90;;;;;;5027434;28;20043;-95
2023/07/27 13:33:11;;;;;;;2.28;0.95;;;18.90;99.90;;;;;;5010296;28;20044;-96
2023/07/27 13:35:38;;;;;;;2.38;0.82;;;18.90;99.90;;;;;;4990026;28;20033;-95
2023/07/27 13:38:04;;;;;;;0.57;0.57;;;18.80;99.90;;;;;;4994319;28;20036;-95
2023/07/27 13:40:30;;;;;;;1.58;0.70;;;18.80;99.90;;;;;;5004211;28;20052;-95
2023/07/27 13:42:56;;;;;;;0.70;0.70;;;;;;;;;;5018069;28;20041;-96
2023/07/27 13:45:22;;;;;;;1.10;0.70;;;18.90;99.90;;;;;;5018854;28;20124;-95
2023/07/27 13:47:48;;;;;;;0.73;0.60;;;18.90;99.90;;;;;;5015210;28;20103;-96
2023/07/27 13:50:14;;;;;;;0.70;0.70;;;18.90;99.90;;;;;;5005074;28;20037;-94
2023/07/27 13:52:41;;;;;;;0.60;0.60;;;18.70;99.90;;;;;;4980474;28;20056;-95
2023/07/27 13:55:07;;;;;;;0.70;0.70;;;18.70;99.90;;;;;;5010875;28;20124;-95
2023/07/27 13:57:33;;;;;;;1.42;0.70;;;18.80;99.90;;;;;;5032304;28;20112;-96
2023/07/27 14:00:00;;;;;;;0.90;0.70;;;18.70;99.90;;;;;;4992946;28;20049;-96
2023/07/27 14:02:25;;;;;;;0.73;0.70;;;18.70;99.90;;;;;;5021965;28;20036;-96
2023/07/27 14:04:51;;;;;;;0.88;0.82;;;18.70;99.90;;;;;;5015318;28;20095;-96
2023/07/27 14:07:27;;;;;;;0.63;0.63;;;18.70;99.90;;;;;;5025030;28;20063;-96
2023/07/27 14:09:54;;;;;;;0.70;0.70;;;18.80;99.90;;;;;;5162179;22;20595;-96
2023/07/27 14:12:22;;;;;;;;;;;18.90;99.90;;;;;;5018575;28;20072;-96
2023/07/27 14:14:51;;;;;;;0.98;0.70;;;18.80;99.90;;;;;;5018126;28;19925;-96
2023/07/27 14:17:24;;;;;;;0.50;0.50;;;18.80;99.90;;;;;;5019464;28;20040;-96
2023/07/27 14:19:53;;;;;;;0.88;0.50;;;18.80;99.90;;;;;;5041000;28;20033;-96
2023/07/27 14:22:22;;;;;;;0.50;0.40;;;18.90;99.90;;;;;;5047891;28;20134;-96
2023/07/27 14:24:47;;;;;;;0.40;0.40;;;18.80;99.90;;;;;;5052553;28;20142;-96
2023/07/27 14:27:13;;;;;;;1.15;0.57;;;18.80;99.90;;;;;;5020375;28;20065;-96
2023/07/27 14:29:42;;;;;;;0.40;0.30;;;18.70;99.90;;;;;;5004599;28;20053;-95